createdAt,value
2018-12-09T00:00:48.396Z,988.09
2018-12-09T00:01:48.791Z,988.04
2018-12-09T00:02:48.333Z,987.98
2018-12-09T00:03:48.895Z,987.94
2018-12-09T00:04:48.233Z,987.91
2018-12-09T00:05:48.526Z,987.87
2018-12-09T00:06:48.425Z,987.87
2018-12-09T00:07:48.372Z,987.82
2018-12-09T00:08:48.367Z,987.78
2018-12-09T00:09:48.450Z,987.74
2018-12-09T00:10:48.385Z,987.72
2018-12-09T00:11:48.255Z,987.64
2018-12-09T00:12:48.373Z,987.64
2018-12-09T00:13:48.626Z,987.58
2018-12-09T00:14:48.263Z,987.59
2018-12-09T00:15:48.272Z,987.57
2018-12-09T00:16:48.280Z,987.51
2018-12-09T00:17:48.293Z,987.45
2018-12-09T00:18:48.305Z,987.44
2018-12-09T00:19:48.519Z,987.41
2018-12-09T00:20:48.576Z,987.43
2018-12-09T00:21:48.327Z,987.37
2018-12-09T00:22:48.331Z,987.34
2018-12-09T00:23:48.323Z,987.26
2018-12-09T00:24:48.557Z,987.29
2018-12-09T00:25:48.469Z,987.22
2018-12-09T00:26:48.365Z,987.22
2018-12-09T00:27:48.700Z,987.17
2018-12-09T00:28:48.362Z,987.15
2018-12-09T00:29:48.479Z,987.11
2018-12-09T00:30:48.398Z,987.03
2018-12-09T00:31:48.426Z,987.02
2018-12-09T00:32:48.411Z,987.01
2018-12-09T00:33:48.495Z,986.98
2018-12-09T00:34:48.619Z,986.96
2018-12-09T00:35:48.965Z,986.98
2018-12-09T00:36:48.933Z,986.89
2018-12-09T00:37:48.584Z,986.88
2018-12-09T00:38:48.783Z,986.86
2018-12-09T00:39:49.174Z,986.80
2018-12-09T00:40:48.474Z,986.82
2018-12-09T00:41:48.438Z,986.82
2018-12-09T00:42:48.520Z,986.78
2018-12-09T00:43:48.420Z,986.75
2018-12-09T00:44:49.611Z,986.71
2018-12-09T00:45:48.440Z,986.70
2018-12-09T00:46:48.808Z,986.67
2018-12-09T00:47:48.505Z,986.67
2018-12-09T00:48:48.770Z,986.66
2018-12-09T00:49:48.495Z,986.62
2018-12-09T00:50:48.506Z,986.61
2018-12-09T00:51:48.602Z,986.65
2018-12-09T00:52:48.487Z,986.56
2018-12-09T00:53:48.477Z,986.52
2018-12-09T00:54:48.528Z,986.53
2018-12-09T00:55:48.495Z,986.48
2018-12-09T00:56:48.508Z,986.45
2018-12-09T00:57:48.560Z,986.45
2018-12-09T00:58:48.515Z,986.41
2018-12-09T00:59:48.517Z,986.36
2018-12-09T01:00:48.532Z,986.39
2018-12-09T01:01:48.542Z,986.35
2018-12-09T01:02:48.765Z,986.35
2018-12-09T01:03:48.597Z,986.32
2018-12-09T01:04:48.603Z,986.31
2018-12-09T01:05:48.617Z,986.29
2018-12-09T01:06:48.678Z,986.24
2018-12-09T01:07:48.627Z,986.17
2018-12-09T01:08:48.624Z,986.18
2018-12-09T01:09:50.185Z,986.02
2018-12-09T01:10:48.614Z,986.03
2018-12-09T01:11:48.668Z,985.96
2018-12-09T01:12:48.620Z,985.94
2018-12-09T01:13:48.631Z,985.85
2018-12-09T01:14:48.714Z,985.87
2018-12-09T01:15:48.682Z,985.79
2018-12-09T01:16:48.878Z,985.68
2018-12-09T01:17:48.802Z,985.66
2018-12-09T01:18:48.642Z,985.63
2018-12-09T01:19:48.831Z,985.45
2018-12-09T01:20:48.650Z,985.49
2018-12-09T01:21:48.735Z,985.47
2018-12-09T01:22:48.785Z,985.46
2018-12-09T01:23:49.082Z,985.52
2018-12-09T01:24:48.689Z,985.43
2018-12-09T01:25:48.733Z,985.40
2018-12-09T01:26:48.673Z,985.34
2018-12-09T01:27:48.697Z,985.35
2018-12-09T01:28:48.711Z,985.36
2018-12-09T01:29:48.695Z,985.25
2018-12-09T01:30:48.718Z,985.30
2018-12-09T01:31:48.728Z,985.23
2018-12-09T01:32:48.796Z,985.26
2018-12-09T01:33:48.836Z,985.22
2018-12-09T01:34:48.856Z,985.23
2018-12-09T01:35:48.803Z,985.21
2018-12-09T01:36:48.839Z,985.18
2018-12-09T01:37:48.730Z,985.20
2018-12-09T01:38:48.769Z,985.16
2018-12-09T01:39:48.757Z,985.07
2018-12-09T01:40:48.771Z,984.99
2018-12-09T01:41:48.831Z,984.99
2018-12-09T01:42:48.775Z,984.95
2018-12-09T01:43:48.794Z,984.99
2018-12-09T01:44:51.633Z,984.99
2018-12-09T01:45:48.808Z,984.95
2018-12-09T01:46:48.890Z,984.93
2018-12-09T01:47:48.793Z,984.90
2018-12-09T01:48:48.826Z,984.89
2018-12-09T01:49:50.362Z,984.95
2018-12-09T01:50:48.825Z,984.91
2018-12-09T01:51:48.917Z,984.86
2018-12-09T01:52:48.827Z,984.78
2018-12-09T01:53:48.876Z,984.77
2018-12-09T01:54:48.851Z,984.76
2018-12-09T01:55:48.941Z,984.72
2018-12-09T01:56:48.844Z,984.74
2018-12-09T01:57:48.878Z,984.74
2018-12-09T01:58:48.872Z,984.75
2018-12-09T01:59:48.872Z,984.73
2018-12-09T02:00:48.938Z,984.72
2018-12-09T02:01:48.884Z,984.65
2018-12-09T02:02:48.887Z,984.64
2018-12-09T02:03:48.891Z,984.63
2018-12-09T02:04:48.917Z,984.65
2018-12-09T02:05:48.941Z,984.58
2018-12-09T02:06:48.951Z,984.53
2018-12-09T02:07:48.922Z,984.51
2018-12-09T02:08:48.949Z,984.50
2018-12-09T02:09:48.945Z,984.46
2018-12-09T02:10:48.918Z,984.46
2018-12-09T02:11:50.052Z,984.42
2018-12-09T02:12:48.959Z,984.38
2018-12-09T02:13:48.985Z,984.37
2018-12-09T02:14:48.955Z,984.39
2018-12-09T02:15:48.972Z,984.40
2018-12-09T02:16:49.022Z,984.36
2018-12-09T02:17:49.000Z,984.37
2018-12-09T02:18:48.994Z,984.41
2018-12-09T02:19:49.061Z,984.34
2018-12-09T02:20:48.990Z,984.31
2018-12-09T02:21:48.997Z,984.20
2018-12-09T02:22:49.083Z,984.23
2018-12-09T02:23:49.004Z,984.21
2018-12-09T02:24:49.113Z,984.18
2018-12-09T02:25:49.018Z,984.23
2018-12-09T02:26:49.049Z,984.16
2018-12-09T02:27:49.083Z,984.19
2018-12-09T02:28:49.035Z,984.17
2018-12-09T02:29:49.032Z,984.16
2018-12-09T02:30:49.074Z,984.19
2018-12-09T02:31:49.101Z,984.13
2018-12-09T02:32:49.089Z,984.10
2018-12-09T02:33:49.075Z,984.07
2018-12-09T02:34:49.060Z,984.06
2018-12-09T02:35:49.098Z,984.02
2018-12-09T02:36:49.117Z,984.02
2018-12-09T02:37:49.212Z,984.00
2018-12-09T02:38:49.176Z,984.00
2018-12-09T02:39:49.121Z,983.92
2018-12-09T02:40:49.091Z,983.94
2018-12-09T02:41:49.174Z,983.89
2018-12-09T02:42:49.094Z,983.86
2018-12-09T02:43:49.290Z,983.84
2018-12-09T02:44:49.171Z,983.81
2018-12-09T02:45:49.127Z,983.84
2018-12-09T02:46:49.130Z,983.77
2018-12-09T02:47:49.138Z,983.79
2018-12-09T02:48:49.139Z,983.77
2018-12-09T02:49:49.324Z,983.76
2018-12-09T02:50:49.151Z,983.77
2018-12-09T02:51:49.169Z,983.76
2018-12-09T02:52:49.170Z,983.72
2018-12-09T02:53:49.193Z,983.72
2018-12-09T02:54:49.252Z,983.70
2018-12-09T02:55:49.228Z,983.64
2018-12-09T02:56:49.298Z,983.67
2018-12-09T02:57:49.214Z,983.65
2018-12-09T02:58:49.213Z,983.62
2018-12-09T02:59:49.215Z,983.60
2018-12-09T03:00:49.489Z,983.57
2018-12-09T03:01:49.258Z,983.55
2018-12-09T03:02:49.218Z,983.55
2018-12-09T03:03:49.230Z,983.49
2018-12-09T03:04:49.248Z,983.46
2018-12-09T03:05:49.285Z,983.45
2018-12-09T03:06:49.271Z,983.42
2018-12-09T03:07:49.251Z,983.47
2018-12-09T03:08:49.287Z,983.43
2018-12-09T03:09:49.265Z,983.44
2018-12-09T03:10:49.290Z,983.45
2018-12-09T03:11:49.348Z,983.39
2018-12-09T03:12:49.285Z,983.39
2018-12-09T03:13:49.339Z,983.40
2018-12-09T03:14:49.289Z,983.35
2018-12-09T03:15:49.298Z,983.31
2018-12-09T03:16:49.358Z,983.34
2018-12-09T03:17:49.359Z,983.31
2018-12-09T03:18:49.313Z,983.37
2018-12-09T03:19:49.332Z,983.31
2018-12-09T03:20:49.328Z,983.30
2018-12-09T03:21:49.397Z,983.28
2018-12-09T03:22:49.363Z,983.25
2018-12-09T03:23:49.366Z,983.31
2018-12-09T03:24:49.380Z,983.27
2018-12-09T03:25:49.370Z,983.30
2018-12-09T03:26:49.372Z,983.28
2018-12-09T03:27:49.396Z,983.34
2018-12-09T03:28:49.386Z,983.30
2018-12-09T03:29:49.391Z,983.29
2018-12-09T03:30:49.456Z,983.27
2018-12-09T03:31:49.490Z,983.23
2018-12-09T03:32:49.422Z,983.21
2018-12-09T03:33:49.454Z,983.20
2018-12-09T03:34:49.446Z,983.21
2018-12-09T03:35:49.434Z,983.19
2018-12-09T03:36:49.568Z,983.17
2018-12-09T03:37:49.448Z,983.16
2018-12-09T03:38:49.434Z,983.16
2018-12-09T03:39:49.479Z,983.15
2018-12-09T03:40:49.447Z,983.14
2018-12-09T03:41:49.459Z,983.15
2018-12-09T03:42:49.465Z,983.15
2018-12-09T03:43:49.473Z,983.10
2018-12-09T03:44:49.478Z,983.13
2018-12-09T03:45:49.512Z,983.12
2018-12-09T03:46:49.478Z,983.03
2018-12-09T03:47:49.513Z,983.08
2018-12-09T03:48:49.485Z,983.07
2018-12-09T03:49:49.515Z,983.09
2018-12-09T03:50:49.546Z,983.09
2018-12-09T03:51:49.528Z,983.10
2018-12-09T03:52:49.536Z,983.13
2018-12-09T03:53:49.535Z,983.06
2018-12-09T03:54:49.539Z,983.01
2018-12-09T03:55:49.536Z,983.05
2018-12-09T03:56:49.618Z,983.02
2018-12-09T03:57:49.545Z,982.98
2018-12-09T03:58:49.570Z,982.95
2018-12-09T03:59:49.565Z,982.95
2018-12-09T04:00:49.686Z,983.02
2018-12-09T04:01:49.571Z,982.97
2018-12-09T04:02:49.621Z,982.97
2018-12-09T04:03:49.630Z,982.97
2018-12-09T04:04:49.589Z,983.00
2018-12-09T04:05:49.629Z,983.00
2018-12-09T04:06:50.301Z,982.96
2018-12-09T04:07:49.614Z,982.96
2018-12-09T04:08:49.625Z,983.02
2018-12-09T04:09:49.669Z,982.96
2018-12-09T04:10:49.627Z,982.98
2018-12-09T04:11:49.631Z,983.01
2018-12-09T04:12:49.651Z,982.99
2018-12-09T04:13:50.926Z,982.95
2018-12-09T04:14:49.647Z,982.99
2018-12-09T04:15:49.666Z,982.99
2018-12-09T04:16:49.672Z,983.02
2018-12-09T04:17:49.696Z,982.99
2018-12-09T04:18:49.876Z,982.97
2018-12-09T04:19:49.703Z,982.96
2018-12-09T04:20:49.741Z,982.94
2018-12-09T04:21:49.698Z,982.93
2018-12-09T04:22:49.712Z,982.92
2018-12-09T04:23:49.714Z,982.93
2018-12-09T04:24:49.727Z,982.95
2018-12-09T04:25:49.735Z,982.86
2018-12-09T04:26:49.779Z,982.90
2018-12-09T04:27:49.732Z,982.85
2018-12-09T04:28:49.737Z,982.84
2018-12-09T04:29:49.749Z,982.85
2018-12-09T04:30:49.747Z,982.85
2018-12-09T04:31:49.785Z,982.82
2018-12-09T04:32:49.775Z,982.81
2018-12-09T04:33:49.785Z,982.80
2018-12-09T04:34:49.779Z,982.73
2018-12-09T04:35:49.839Z,982.77
2018-12-09T04:36:49.796Z,982.80
2018-12-09T04:37:49.812Z,982.76
2018-12-09T04:38:49.802Z,982.75
2018-12-09T04:39:49.813Z,982.72
2018-12-09T04:40:49.828Z,982.76
2018-12-09T04:41:49.855Z,982.76
2018-12-09T04:42:50.309Z,982.75
2018-12-09T04:43:49.815Z,982.73
2018-12-09T04:44:49.854Z,982.77
2018-12-09T04:45:49.854Z,982.73
2018-12-09T04:46:49.869Z,982.76
2018-12-09T04:47:49.864Z,982.76
2018-12-09T04:48:49.875Z,982.76
2018-12-09T04:49:49.872Z,982.73
2018-12-09T04:50:49.874Z,982.71
2018-12-09T04:51:49.908Z,982.69
2018-12-09T04:52:49.902Z,982.74
2018-12-09T04:53:49.947Z,982.76
2018-12-09T04:54:49.883Z,982.75
2018-12-09T04:55:49.891Z,982.77
2018-12-09T04:56:49.961Z,982.75
2018-12-09T04:57:49.935Z,982.79
2018-12-09T04:58:49.967Z,982.77
2018-12-09T04:59:49.941Z,982.75
2018-12-09T05:00:49.912Z,982.75
2018-12-09T05:01:49.931Z,982.74
2018-12-09T05:02:49.953Z,982.74
2018-12-09T05:03:49.964Z,982.79
2018-12-09T05:04:50.073Z,982.75
2018-12-09T05:05:49.991Z,982.76
2018-12-09T05:06:49.958Z,982.70
2018-12-09T05:07:49.954Z,982.77
2018-12-09T05:08:49.970Z,982.73
2018-12-09T05:09:50.036Z,982.79
2018-12-09T05:10:50.021Z,982.83
2018-12-09T05:11:49.985Z,982.82
2018-12-09T05:12:50.044Z,982.81
2018-12-09T05:13:49.999Z,982.87
2018-12-09T05:14:50.054Z,982.85
2018-12-09T05:15:50.010Z,982.80
2018-12-09T05:16:50.027Z,982.82
2018-12-09T05:17:50.021Z,982.91
2018-12-09T05:18:50.020Z,982.85
2018-12-09T05:19:50.086Z,982.85
2018-12-09T05:20:50.076Z,982.92
2018-12-09T05:21:50.039Z,982.88
2018-12-09T05:22:50.047Z,982.88
2018-12-09T05:23:50.076Z,982.87
2018-12-09T05:24:50.078Z,982.95
2018-12-09T05:25:50.121Z,982.94
2018-12-09T05:26:50.075Z,982.91
2018-12-09T05:27:50.086Z,982.84
2018-12-09T05:28:50.100Z,982.92
2018-12-09T05:29:50.098Z,982.97
2018-12-09T05:30:50.104Z,982.99
2018-12-09T05:31:50.124Z,983.03
2018-12-09T05:32:50.115Z,983.02
2018-12-09T05:33:50.124Z,983.00
2018-12-09T05:34:50.174Z,983.00
2018-12-09T05:35:50.132Z,982.94
2018-12-09T05:36:50.151Z,983.06
2018-12-09T05:37:50.199Z,983.02
2018-12-09T05:38:50.156Z,982.98
2018-12-09T05:39:50.150Z,983.04
2018-12-09T05:40:50.784Z,983.08
2018-12-09T05:41:50.176Z,983.06
2018-12-09T05:42:50.248Z,983.05
2018-12-09T05:43:50.185Z,983.04
2018-12-09T05:44:50.181Z,983.09
2018-12-09T05:45:50.195Z,983.10
2018-12-09T05:46:50.191Z,983.15
2018-12-09T05:47:50.206Z,983.14
2018-12-09T05:48:50.242Z,983.07
2018-12-09T05:49:50.208Z,983.07
2018-12-09T05:50:50.283Z,982.97
2018-12-09T05:51:50.214Z,983.15
2018-12-09T05:52:50.239Z,983.12
2018-12-09T05:53:50.250Z,983.16
2018-12-09T05:54:50.260Z,983.15
2018-12-09T05:55:50.324Z,983.17
2018-12-09T05:56:50.269Z,983.18
2018-12-09T05:57:50.269Z,983.20
2018-12-09T05:58:50.263Z,983.21
2018-12-09T05:59:50.263Z,983.20
2018-12-09T06:00:50.799Z,983.18
2018-12-09T06:01:50.319Z,983.27
2018-12-09T06:02:50.390Z,983.19
2018-12-09T06:03:50.331Z,983.21
2018-12-09T06:04:50.291Z,983.25
2018-12-09T06:05:50.290Z,983.30
2018-12-09T06:06:50.339Z,983.23
2018-12-09T06:07:50.343Z,983.22
2018-12-09T06:08:50.321Z,983.27
2018-12-09T06:09:50.335Z,983.26
2018-12-09T06:10:50.372Z,983.29
2018-12-09T06:11:50.335Z,983.23
2018-12-09T06:12:50.342Z,983.24
2018-12-09T06:13:50.438Z,983.25
2018-12-09T06:14:50.361Z,983.22
2018-12-09T06:15:50.397Z,983.22
2018-12-09T06:16:50.369Z,983.29
2018-12-09T06:17:50.389Z,983.32
2018-12-09T06:18:50.401Z,983.25
2018-12-09T06:19:50.382Z,983.30
2018-12-09T06:20:50.400Z,983.25
2018-12-09T06:21:50.391Z,983.35
2018-12-09T06:22:50.405Z,983.29
2018-12-09T06:23:50.445Z,983.36
2018-12-09T06:24:50.428Z,983.38
2018-12-09T06:25:50.416Z,983.51
2018-12-09T06:26:50.427Z,983.50
2018-12-09T06:27:50.434Z,983.46
2018-12-09T06:28:50.428Z,983.47
2018-12-09T06:29:50.457Z,983.59
2018-12-09T06:30:50.438Z,983.62
2018-12-09T06:31:50.522Z,983.55
2018-12-09T06:32:50.452Z,983.61
2018-12-09T06:33:50.459Z,983.64
2018-12-09T06:34:50.596Z,983.71
2018-12-09T06:35:50.466Z,983.75
2018-12-09T06:36:50.497Z,983.73
2018-12-09T06:37:50.483Z,983.79
2018-12-09T06:38:50.498Z,983.81
2018-12-09T06:39:50.503Z,983.74
2018-12-09T06:40:50.543Z,983.78
2018-12-09T06:41:50.535Z,983.86
2018-12-09T06:42:50.537Z,983.91
2018-12-09T06:43:50.569Z,983.93
2018-12-09T06:44:50.512Z,983.92
2018-12-09T06:45:50.558Z,983.95
2018-12-09T06:46:51.281Z,983.92
2018-12-09T06:47:50.535Z,983.92
2018-12-09T06:48:50.602Z,983.97
2018-12-09T06:49:50.570Z,984.03
2018-12-09T06:50:50.555Z,983.97
2018-12-09T06:51:50.595Z,983.99
2018-12-09T06:52:50.610Z,984.00
2018-12-09T06:53:50.598Z,983.99
2018-12-09T06:54:50.605Z,984.01
2018-12-09T06:55:50.577Z,984.05
2018-12-09T06:56:50.652Z,984.07
2018-12-09T06:57:50.591Z,984.12
2018-12-09T06:58:50.641Z,984.14
2018-12-09T06:59:50.612Z,984.06
2018-12-09T07:00:50.671Z,984.16
2018-12-09T07:01:50.681Z,984.20
2018-12-09T07:02:51.287Z,984.22
2018-12-09T07:03:50.682Z,984.30
2018-12-09T07:04:50.636Z,984.22
2018-12-09T07:05:50.641Z,984.27
2018-12-09T07:06:50.686Z,984.36
2018-12-09T07:07:50.643Z,984.36
2018-12-09T07:08:50.692Z,984.34
2018-12-09T07:09:50.661Z,984.34
2018-12-09T07:10:50.705Z,984.39
2018-12-09T07:11:50.681Z,984.43
2018-12-09T07:12:50.787Z,984.40
2018-12-09T07:13:50.755Z,984.45
2018-12-09T07:14:50.695Z,984.46
2018-12-09T07:15:50.689Z,984.54
2018-12-09T07:16:51.196Z,984.50
2018-12-09T07:17:50.756Z,984.53
2018-12-09T07:18:50.773Z,984.53
2018-12-09T07:19:50.745Z,984.58
2018-12-09T07:20:50.742Z,984.57
2018-12-09T07:21:52.544Z,984.56
2018-12-09T07:22:50.740Z,984.61
2018-12-09T07:23:50.806Z,984.59
2018-12-09T07:24:50.772Z,984.66
2018-12-09T07:25:50.777Z,984.64
2018-12-09T07:26:50.773Z,984.70
2018-12-09T07:27:50.791Z,984.71
2018-12-09T07:28:50.766Z,984.72
2018-12-09T07:29:50.807Z,984.78
2018-12-09T07:30:50.801Z,984.82
2018-12-09T07:31:50.817Z,984.83
2018-12-09T07:32:50.869Z,984.82
2018-12-09T07:33:50.827Z,984.90
2018-12-09T07:34:50.943Z,984.84
2018-12-09T07:35:50.882Z,984.91
2018-12-09T07:36:50.906Z,984.90
2018-12-09T07:37:50.855Z,984.90
2018-12-09T07:38:50.940Z,984.90
2018-12-09T07:39:50.858Z,984.98
2018-12-09T07:40:50.909Z,985.02
2018-12-09T07:41:50.859Z,984.98
2018-12-09T07:42:50.891Z,984.98
2018-12-09T07:43:50.870Z,985.03
2018-12-09T07:44:51.320Z,985.03
2018-12-09T07:45:50.897Z,984.99
2018-12-09T07:46:50.925Z,985.15
2018-12-09T07:47:51.473Z,985.17
2018-12-09T07:48:51.514Z,985.18
2018-12-09T07:49:51.270Z,985.13
2018-12-09T07:50:50.982Z,985.16
2018-12-09T07:51:50.933Z,985.18
2018-12-09T07:52:51.033Z,985.19
2018-12-09T07:53:50.918Z,985.24
2018-12-09T07:54:52.197Z,985.22
2018-12-09T07:55:51.422Z,985.21
2018-12-09T07:56:50.972Z,985.23
2018-12-09T07:57:51.197Z,985.26
2018-12-09T07:58:51.286Z,985.29
2018-12-09T07:59:52.428Z,985.29
2018-12-09T08:00:51.413Z,985.32
2018-12-09T08:01:50.997Z,985.35
2018-12-09T08:02:50.968Z,985.33
2018-12-09T08:03:51.008Z,985.34
2018-12-09T08:04:50.985Z,985.31
2018-12-09T08:05:51.030Z,985.37
2018-12-09T08:06:51.000Z,985.39
2018-12-09T08:07:50.993Z,985.40
2018-12-09T08:08:51.015Z,985.43
2018-12-09T08:09:51.017Z,985.48
2018-12-09T08:10:51.029Z,985.52
2018-12-09T08:11:51.264Z,985.47
2018-12-09T08:12:51.032Z,985.50
2018-12-09T08:13:51.067Z,985.50
2018-12-09T08:14:51.113Z,985.54
2018-12-09T08:15:51.047Z,985.55
2018-12-09T08:16:51.054Z,985.65
2018-12-09T08:17:51.078Z,985.56
2018-12-09T08:18:51.115Z,985.66
2018-12-09T08:19:51.094Z,985.62
2018-12-09T08:20:51.106Z,985.64
2018-12-09T08:21:51.243Z,985.69
2018-12-09T08:22:51.104Z,985.71
2018-12-09T08:23:51.196Z,985.70
2018-12-09T08:24:51.140Z,985.70
2018-12-09T08:25:51.122Z,985.69
2018-12-09T08:26:51.186Z,985.74
2018-12-09T08:27:51.112Z,985.75
2018-12-09T08:28:51.128Z,985.74
2018-12-09T08:29:52.866Z,985.80
2018-12-09T08:30:51.127Z,985.83
2018-12-09T08:31:51.136Z,985.90
2018-12-09T08:32:51.141Z,985.81
2018-12-09T08:33:51.151Z,985.91
2018-12-09T08:34:51.230Z,985.88
2018-12-09T08:35:51.169Z,985.93
2018-12-09T08:36:51.222Z,985.85
2018-12-09T08:37:51.210Z,985.95
2018-12-09T08:38:51.199Z,985.95
2018-12-09T08:39:51.346Z,985.90
2018-12-09T08:40:51.273Z,985.90
2018-12-09T08:41:51.441Z,985.91
2018-12-09T08:42:51.341Z,985.97
2018-12-09T08:43:51.284Z,985.94
2018-12-09T08:44:51.336Z,986.02
2018-12-09T08:45:51.250Z,985.99
2018-12-09T08:46:51.312Z,985.99
2018-12-09T08:47:51.409Z,985.99
2018-12-09T08:48:51.400Z,986.09
2018-12-09T08:49:51.342Z,986.04
2018-12-09T08:50:51.283Z,986.11
2018-12-09T08:51:51.283Z,986.08
2018-12-09T08:52:51.299Z,986.20
2018-12-09T08:53:51.261Z,986.23
2018-12-09T08:54:51.302Z,986.25
2018-12-09T08:55:51.298Z,986.28
2018-12-09T08:56:51.422Z,986.32
2018-12-09T08:57:51.313Z,986.34
2018-12-09T08:58:51.299Z,986.32
2018-12-09T08:59:51.387Z,986.35
2018-12-09T09:00:51.305Z,986.31
2018-12-09T09:01:51.311Z,986.32
2018-12-09T09:02:51.327Z,986.37
2018-12-09T09:03:51.857Z,986.33
2018-12-09T09:04:51.325Z,986.38
2018-12-09T09:05:51.388Z,986.43
2018-12-09T09:06:51.339Z,986.44
2018-12-09T09:07:51.356Z,986.43
2018-12-09T09:08:51.344Z,986.45
2018-12-09T09:09:51.411Z,986.50
2018-12-09T09:10:51.373Z,986.50
2018-12-09T09:11:51.373Z,986.47
2018-12-09T09:12:51.487Z,986.49
2018-12-09T09:13:51.559Z,986.52
2018-12-09T09:14:51.503Z,986.50
2018-12-09T09:15:51.454Z,986.54
2018-12-09T09:16:51.419Z,986.52
2018-12-09T09:17:51.451Z,986.56
2018-12-09T09:18:51.510Z,986.57
2018-12-09T09:19:51.560Z,986.53
2018-12-09T09:20:51.538Z,986.57
2018-12-09T09:21:51.472Z,986.58
2018-12-09T09:22:51.489Z,986.62
2018-12-09T09:23:51.513Z,986.60
2018-12-09T09:24:51.494Z,986.70
2018-12-09T09:25:51.575Z,986.65
2018-12-09T09:26:51.542Z,986.65
2018-12-09T09:27:51.474Z,986.67
2018-12-09T09:28:52.093Z,986.77
2018-12-09T09:29:51.489Z,986.72
2018-12-09T09:30:51.485Z,986.67
2018-12-09T09:31:51.534Z,986.87
2018-12-09T09:32:51.496Z,986.78
2018-12-09T09:33:51.564Z,986.80
2018-12-09T09:34:51.571Z,986.75
2018-12-09T09:35:51.740Z,986.85
2018-12-09T09:36:51.544Z,986.89
2018-12-09T09:37:51.570Z,986.85
2018-12-09T09:38:51.592Z,986.91
2018-12-09T09:39:51.566Z,986.89
2018-12-09T09:40:51.551Z,986.96
2018-12-09T09:41:51.560Z,986.85
2018-12-09T09:42:51.567Z,986.95
2018-12-09T09:43:51.702Z,986.94
2018-12-09T09:44:51.602Z,986.94
2018-12-09T09:45:51.638Z,986.91
2018-12-09T09:46:51.663Z,986.94
2018-12-09T09:47:51.589Z,986.84
2018-12-09T09:48:51.604Z,986.95
2018-12-09T09:49:51.620Z,986.96
2018-12-09T09:50:51.628Z,986.97
2018-12-09T09:51:51.629Z,986.98
2018-12-09T09:52:51.631Z,987.00
2018-12-09T09:53:51.656Z,986.99
2018-12-09T09:54:51.664Z,987.00
2018-12-09T09:55:51.775Z,987.02
2018-12-09T09:56:51.655Z,987.03
2018-12-09T09:57:51.701Z,987.10
2018-12-09T09:58:51.690Z,987.12
2018-12-09T09:59:51.724Z,987.08
2018-12-09T10:00:51.680Z,987.06
2018-12-09T10:01:51.690Z,987.15
2018-12-09T10:02:51.705Z,987.14
2018-12-09T10:03:51.713Z,987.18
2018-12-09T10:04:51.721Z,987.15
2018-12-09T10:05:51.741Z,987.18
2018-12-09T10:06:51.733Z,987.21
2018-12-09T10:07:51.713Z,987.22
2018-12-09T10:08:51.757Z,987.23
2018-12-09T10:09:51.768Z,987.23
2018-12-09T10:10:51.842Z,987.18
2018-12-09T10:11:51.796Z,987.22
2018-12-09T10:12:51.763Z,987.21
2018-12-09T10:13:51.854Z,987.17
2018-12-09T10:14:51.769Z,987.23
2018-12-09T10:15:51.789Z,987.20
2018-12-09T10:16:51.764Z,987.22
2018-12-09T10:17:51.864Z,987.26
2018-12-09T10:18:51.803Z,987.28
2018-12-09T10:19:51.815Z,987.21
2018-12-09T10:20:51.806Z,987.25
2018-12-09T10:21:51.833Z,987.26
2018-12-09T10:22:51.829Z,987.35
2018-12-09T10:23:51.846Z,987.12
2018-12-09T10:24:51.857Z,987.25
2018-12-09T10:25:51.834Z,987.22
2018-12-09T10:26:51.827Z,987.23
2018-12-09T10:27:51.869Z,987.24
2018-12-09T10:28:52.144Z,987.28
2018-12-09T10:29:55.203Z,987.26
2018-12-09T10:30:53.336Z,987.28
2018-12-09T10:32:51.889Z,987.19
2018-12-09T10:33:51.897Z,987.22
2018-12-09T10:34:52.612Z,987.21
2018-12-09T10:35:55.219Z,987.17
2018-12-09T10:36:51.908Z,987.21
2018-12-09T10:37:51.911Z,987.22
2018-12-09T10:38:51.918Z,987.22
2018-12-09T10:39:53.145Z,987.25
2018-12-09T10:40:51.965Z,987.31
2018-12-09T10:41:52.443Z,987.25
2018-12-09T10:42:52.003Z,987.23
2018-12-09T10:43:52.015Z,987.26
2018-12-09T10:44:51.980Z,987.31
2018-12-09T10:45:51.989Z,987.30
2018-12-09T10:46:52.002Z,987.28
2018-12-09T10:47:52.056Z,987.26
2018-12-09T10:48:52.010Z,987.26
2018-12-09T10:49:52.333Z,987.30
2018-12-09T10:50:52.059Z,987.33
2018-12-09T10:51:52.003Z,987.27
2018-12-09T10:52:52.043Z,987.34
2018-12-09T10:53:52.031Z,987.35
2018-12-09T10:54:52.038Z,987.30
2018-12-09T10:55:52.118Z,987.33
2018-12-09T10:56:52.066Z,987.36
2018-12-09T10:57:52.063Z,987.34
2018-12-09T10:58:52.055Z,987.34
2018-12-09T10:59:52.091Z,987.37
2018-12-09T11:00:52.076Z,987.39
2018-12-09T11:01:52.087Z,987.39
2018-12-09T11:02:53.706Z,987.39
2018-12-09T11:03:52.117Z,987.45
2018-12-09T11:04:52.811Z,987.32
2018-12-09T11:05:52.117Z,987.37
2018-12-09T11:06:52.404Z,987.39
2018-12-09T11:07:52.803Z,987.42
2018-12-09T11:08:52.116Z,987.41
2018-12-09T11:09:52.123Z,987.47
2018-12-09T11:10:52.158Z,987.52
2018-12-09T11:11:52.145Z,987.40
2018-12-09T11:12:52.154Z,987.49
2018-12-09T11:13:58.132Z,987.46
2018-12-09T11:14:52.218Z,987.48
2018-12-09T11:15:52.227Z,987.50
2018-12-09T11:16:52.199Z,987.47
2018-12-09T11:17:52.256Z,987.46
2018-12-09T11:18:52.269Z,987.54
2018-12-09T11:19:52.207Z,987.52
2018-12-09T11:20:52.221Z,987.54
2018-12-09T11:21:52.198Z,987.50
2018-12-09T11:22:52.235Z,987.53
2018-12-09T11:23:52.234Z,987.56
2018-12-09T11:24:52.246Z,987.50
2018-12-09T11:25:52.244Z,987.54
2018-12-09T11:26:54.209Z,987.54
2018-12-09T11:27:52.362Z,987.56
2018-12-09T11:28:53.108Z,987.58
2018-12-09T11:29:54.279Z,987.56
2018-12-09T11:30:52.912Z,987.52
2018-12-09T11:31:52.382Z,987.59
2018-12-09T11:32:52.649Z,987.56
2018-12-09T11:33:52.904Z,987.56
2018-12-09T11:34:57.384Z,987.55
2018-12-09T11:35:52.327Z,987.56
2018-12-09T11:36:52.452Z,987.52
2018-12-09T11:37:52.316Z,987.51
2018-12-09T11:38:52.315Z,987.53
2018-12-09T11:39:52.336Z,987.51
2018-12-09T11:40:52.347Z,987.48
2018-12-09T11:41:52.351Z,987.51
2018-12-09T11:42:52.354Z,987.41
2018-12-09T11:43:53.403Z,987.53
2018-12-09T11:44:52.543Z,987.52
2018-12-09T11:45:52.419Z,987.45
2018-12-09T11:46:52.484Z,987.48
2018-12-09T11:47:52.452Z,987.45
2018-12-09T11:48:52.517Z,987.45
2018-12-09T11:49:52.379Z,987.47
2018-12-09T11:50:52.503Z,987.48
2018-12-09T11:51:52.622Z,987.45
2018-12-09T11:52:52.441Z,987.46
2018-12-09T11:53:52.448Z,987.47
2018-12-09T11:54:52.419Z,987.50
2018-12-09T11:55:52.424Z,987.47
2018-12-09T11:56:52.429Z,987.53
2018-12-09T11:57:52.458Z,987.51
2018-12-09T11:58:52.447Z,987.53
2018-12-09T11:59:52.468Z,987.56
2018-12-09T12:00:52.459Z,987.53
2018-12-09T12:01:52.589Z,987.51
2018-12-09T12:02:52.507Z,987.50
2018-12-09T12:03:52.488Z,987.56
2018-12-09T12:04:52.534Z,987.54
2018-12-09T12:05:52.499Z,987.51
2018-12-09T12:06:52.485Z,987.50
2018-12-09T12:07:52.532Z,987.56
2018-12-09T12:08:52.519Z,987.50
2018-12-09T12:09:52.656Z,987.60
2018-12-09T12:10:52.539Z,987.60
2018-12-09T12:11:52.551Z,987.52
2018-12-09T12:12:52.540Z,987.59
2018-12-09T12:13:52.593Z,987.60
2018-12-09T12:14:52.572Z,987.61
2018-12-09T12:15:52.555Z,987.55
2018-12-09T12:16:52.566Z,987.58
2018-12-09T12:17:52.572Z,987.59
2018-12-09T12:18:53.732Z,987.63
2018-12-09T12:19:52.629Z,987.67
2018-12-09T12:20:52.595Z,987.65
2018-12-09T12:21:52.613Z,987.67
2018-12-09T12:22:52.629Z,987.68
2018-12-09T12:23:52.618Z,987.70
2018-12-09T12:24:52.633Z,987.73
2018-12-09T12:25:52.639Z,987.71
2018-12-09T12:26:52.697Z,987.68
2018-12-09T12:27:54.214Z,987.72
2018-12-09T12:28:53.011Z,987.77
2018-12-09T12:29:52.674Z,987.74